Rockville, Connecticut
Current Conditions -  °F | °C
As of 11:53 AM on Saturday 22 Nov 2014 (Local Time) from KHFD Reporting Station
Clear Clear  
Wind Chill: 27°   Ceiling: Unl
Heat Index: 37°   Visibility: 10mi
Dew Point:   Wind: 17mph
Humidity: 31%   Direction: 230°SW
Pressure: 30.31"   Gusts: 25mph
Location:  41.837°N, 72.4608°W
Report Text: KHFD 221653Z 23015G22KT 10SM CLR 03/M13 A3031 RMK AO2 SLP264 T00281128
Loading
Personal Weather Stations






























Interactive Weather Map New forecast layout! Learn more

10-Day Weather Forecast

Advertisements
Track Severe Weather on mobile